Eglin Air Force Base, FL

11:05 PM CDT on July 29, 2015 (GMT -0500)
Eglin Air Force Base | | Change Station
CLOSE
Current Station
Airport
Location: Valparaiso,
Elevation: 85 ft
Nearby Weather Stations

Elev 85 ft 30.48 °N, 86.53 °W | Updated 10 minutes ago

Partly Cloudy
Partly Cloudy
81 °F
Feels Like 87 °F
N
1
Wind Variable Wind from NW

Today
High -- | Low -- °F
--% Chance of Precip.
Yesterday
High -- | Low -- °F
Precip. -- in
6:02 AM 7:42 PM
Waxing Gibbous, 98% visible
Pressure 30.00 in
Visibility 6.0 miles
Clouds Scattered Clouds 8000 ft
Scattered Clouds 23000 ft
Heat Index 87 °F
Dew Point 76 °F
Humidity 85%
Rainfall 0.21 in
Snow Depth Not available.
UV 0 out of 12
Pollen 3.30 out of 12
Air Quality Not available.
Flu Activity Not available.
METAR KVPS 300355Z 31001KT 6SM HZ SCT080 SCT230 27/24 A2998 RMK AO2A SLP158 T02710244 $

More Conditions Fewer Conditions

Pressure 30.00 in
Visibility 6.0 miles
Clouds Scattered Clouds 8000 ft
Scattered Clouds 23000 ft
Heat Index 87 °F
Dew Point 76 °F
Humidity 85%
Rainfall 0.21 in
Snow Depth Not available.
UV 0 out of 12
Pollen 3.30 out of 12
Air Quality Not available.
Flu Activity Not available.
METAR KVPS 300355Z 31001KT 6SM HZ SCT080 SCT230 27/24 A2998 RMK AO2A SLP158 T02710244 $

More Conditions Fewer Conditions

10-Day Weather Forecast

×

Almanac

Astronomy

Jul. 29, 2015 Rise Set
Actual Time
Civil Twilight
Nautical Twilight
Astronomical Twilight
Moon
Length of Visible Light
Length of Day
Tomorrow will be .
, % of the Moon is Illuminated

Today's Extremes

State Highs State Lows

Community

WunderPhotos

Upload Photos

1,842,293 photos uploaded!

WunderBlogs® & News

Nearby

Air Quality

  Air Quality AQ Index Pollutant
Not available.

Snow Depth

Station Depth Elevation

Earthquake Activity

City Distance Mag. Time & Date
Minimum magnitude displayed is 2.5.

Coastal Water Temperatures

Place Temperature

Stations

Nearby Weather Stations

Station Location Temp. Windchill Dew Point Humidity Wind Precip. Elev Updated Type